SAS7259 EKCH-LGIR
Flight info
| Callsign | SAS7259 |
|---|---|
| Flight time | 3h 5m |
| Altitude | 37000 |
| Route | SIMEG Z491 TELMO DCT KEKOV DCT POKEN Z491 VAVUN L996 DENKO L616 DESEN DCT VALPI DCT PARAK DCT RAXAD DCT MAKED UL617 KEA UL607 GIVIS UT514 XAVIS |
| Aircraft | A319/M-SDE3FGIJ1RWXY/LB1 |
Departure
| Time | 2026-04-22 12:51 |
|---|---|
| Airport | Copenhagen Kastrup Airport (EKCH) |
Arrival
| Time | 2026-04-22 15:56 |
|---|---|
| Airport | Heraklion International Nikos Kazantzakis Airport (LGIR) |
| Time | Latitude | Longitude | Altitude | Speed | Heading |
|---|---|---|---|---|---|
| 2026-04-22 12:31 | 55.62569 | 12.64512 | 26 ft | 0 kts | 15° |
| 2026-04-22 12:41 | 55.62568 | 12.64511 | 24 ft | 1 kts | 15° |
| 2026-04-22 12:41 | 55.62553 | 12.64504 | 25 ft | 3 kts | 19° |
| 2026-04-22 12:41 | 55.62540 | 12.64495 | 25 ft | 3 kts | 26° |
| 2026-04-22 12:42 | 55.62523 | 12.64478 | 27 ft | 3 kts | 44° |
| 2026-04-22 12:42 | 55.62513 | 12.64453 | 25 ft | 3 kts | 89° |
| 2026-04-22 12:42 | 55.62515 | 12.64436 | 25 ft | 1 kts | 123° |
| 2026-04-22 12:42 | 55.62517 | 12.64430 | 25 ft | 0 kts | 123° |
| 2026-04-22 12:43 | 55.62516 | 12.64431 | 25 ft | 0 kts | 123° |
| 2026-04-22 12:43 | 55.62516 | 12.64433 | 25 ft | 0 kts | 123° |
| 2026-04-22 12:44 | 55.62515 | 12.64435 | 25 ft | 0 kts | 123° |
| 2026-04-22 12:45 | 55.62501 | 12.64467 | 26 ft | 6 kts | 134° |
| 2026-04-22 12:45 | 55.62442 | 12.64475 | 24 ft | 12 kts | 199° |
| 2026-04-22 12:45 | 55.62343 | 12.64422 | 23 ft | 17 kts | 192° |
| 2026-04-22 12:45 | 55.62208 | 12.64351 | 23 ft | 22 kts | 204° |
| 2026-04-22 12:46 | 55.62070 | 12.64236 | 24 ft | 22 kts | 205° |
| 2026-04-22 12:46 | 55.61927 | 12.64115 | 24 ft | 23 kts | 205° |
| 2026-04-22 12:46 | 55.61780 | 12.64078 | 24 ft | 13 kts | 176° |
| 2026-04-22 12:46 | 55.61772 | 12.64078 | 24 ft | 0 kts | 176° |
| 2026-04-22 12:47 | 55.61759 | 12.64080 | 24 ft | 1 kts | 176° |
| 2026-04-22 12:49 | 55.61758 | 12.64080 | 24 ft | 2 kts | 176° |
| 2026-04-22 12:49 | 55.61691 | 12.64089 | 29 ft | 17 kts | 175° |
| 2026-04-22 12:50 | 55.61560 | 12.63969 | 29 ft | 35 kts | 221° |
| 2026-04-22 12:50 | 55.61213 | 12.63429 | 28 ft | 97 kts | 221° |
| 2026-04-22 12:50 | 55.60575 | 12.62433 | 27 ft | 150 kts | 221° |
| 2026-04-22 12:50 | 55.59675 | 12.61056 | 273 ft | 176 kts | 226° |
| 2026-04-22 12:51 | 55.58751 | 12.59672 | 1060 ft | 173 kts | 226° |
| 2026-04-22 12:51 | 55.57843 | 12.58286 | 1751 ft | 173 kts | 228° |
| 2026-04-22 12:51 | 55.56898 | 12.56810 | 2151 ft | 190 kts | 228° |
| 2026-04-22 12:51 | 55.55696 | 12.55470 | 2464 ft | 221 kts | 208° |
| 2026-04-22 12:52 | 55.54205 | 12.54466 | 3086 ft | 232 kts | 202° |
| 2026-04-22 12:52 | 55.52631 | 12.53542 | 3638 ft | 253 kts | 201° |
| 2026-04-22 12:52 | 55.50879 | 12.52531 | 4179 ft | 274 kts | 201° |
| 2026-04-22 12:52 | 55.49043 | 12.51464 | 5085 ft | 280 kts | 200° |
| 2026-04-22 12:53 | 55.47162 | 12.50431 | 5975 ft | 287 kts | 193° |
| 2026-04-22 12:53 | 55.45150 | 12.50405 | 6843 ft | 294 kts | 167° |
| 2026-04-22 12:53 | 55.43276 | 12.51813 | 7681 ft | 295 kts | 142° |
| 2026-04-22 12:53 | 55.41873 | 12.54404 | 8543 ft | 293 kts | 117° |
| 2026-04-22 12:54 | 55.41124 | 12.57696 | 9423 ft | 290 kts | 102° |
| 2026-04-22 12:54 | 55.40550 | 12.61116 | 10303 ft | 293 kts | 102° |
| 2026-04-22 12:54 | 55.39954 | 12.64661 | 10689 ft | 313 kts | 103° |
| 2026-04-22 12:54 | 55.39315 | 12.68448 | 11096 ft | 329 kts | 103° |
| 2026-04-22 12:55 | 55.38652 | 12.72330 | 11796 ft | 334 kts | 103° |
| 2026-04-22 12:55 | 55.37977 | 12.76248 | 12563 ft | 336 kts | 103° |
| 2026-04-22 12:55 | 55.37293 | 12.80194 | 13342 ft | 339 kts | 103° |
| 2026-04-22 12:55 | 55.36601 | 12.84166 | 14107 ft | 341 kts | 103° |
| 2026-04-22 12:56 | 55.35904 | 12.88175 | 14770 ft | 344 kts | 103° |
| 2026-04-22 12:56 | 55.35203 | 12.92203 | 15434 ft | 346 kts | 104° |
| 2026-04-22 12:56 | 55.34495 | 12.96265 | 16086 ft | 349 kts | 104° |
| 2026-04-22 12:56 | 55.33784 | 13.00352 | 16753 ft | 351 kts | 104° |
| 2026-04-22 12:57 | 55.33069 | 13.04471 | 17415 ft | 354 kts | 104° |
| 2026-04-22 12:57 | 55.32346 | 13.08624 | 18077 ft | 357 kts | 104° |
| 2026-04-22 12:57 | 55.31618 | 13.12797 | 18702 ft | 359 kts | 104° |
| 2026-04-22 12:57 | 55.30891 | 13.16947 | 19253 ft | 362 kts | 104° |
| 2026-04-22 12:58 | 55.30147 | 13.21179 | 19831 ft | 364 kts | 104° |
| 2026-04-22 12:58 | 55.29384 | 13.25502 | 20419 ft | 367 kts | 104° |
| 2026-04-22 12:58 | 55.28625 | 13.29791 | 20992 ft | 369 kts | 105° |
| 2026-04-22 12:58 | 55.27869 | 13.34045 | 21551 ft | 372 kts | 105° |
| 2026-04-22 12:59 | 55.27094 | 13.38389 | 22100 ft | 375 kts | 105° |
| 2026-04-22 12:59 | 55.26312 | 13.42773 | 22663 ft | 377 kts | 105° |
| 2026-04-22 12:59 | 55.25525 | 13.47173 | 23247 ft | 379 kts | 106° |
| 2026-04-22 12:59 | 55.24559 | 13.51493 | 23768 ft | 384 kts | 115° |
| 2026-04-22 13:00 | 55.23277 | 13.55619 | 24189 ft | 387 kts | 117° |
| 2026-04-22 13:00 | 55.21972 | 13.59754 | 24665 ft | 388 kts | 117° |
| 2026-04-22 13:00 | 55.20663 | 13.63897 | 25135 ft | 389 kts | 117° |
| 2026-04-22 13:00 | 55.19352 | 13.68045 | 25605 ft | 390 kts | 117° |
| 2026-04-22 13:01 | 55.18036 | 13.72210 | 26080 ft | 391 kts | 116° |
| 2026-04-22 13:01 | 55.16718 | 13.76379 | 26544 ft | 392 kts | 116° |
| 2026-04-22 13:01 | 55.15398 | 13.80550 | 27028 ft | 392 kts | 116° |
| 2026-04-22 13:01 | 55.14073 | 13.84723 | 27511 ft | 393 kts | 116° |
| 2026-04-22 13:02 | 55.12743 | 13.88908 | 27952 ft | 395 kts | 116° |
| 2026-04-22 13:02 | 55.11407 | 13.93109 | 28405 ft | 396 kts | 116° |
| 2026-04-22 13:02 | 55.10067 | 13.97308 | 28853 ft | 397 kts | 116° |
| 2026-04-22 13:02 | 55.08716 | 14.01521 | 29308 ft | 398 kts | 115° |
| 2026-04-22 13:03 | 55.07359 | 14.05731 | 29766 ft | 399 kts | 115° |
| 2026-04-22 13:03 | 55.05999 | 14.09951 | 30210 ft | 399 kts | 115° |
| 2026-04-22 13:03 | 55.04638 | 14.14176 | 30583 ft | 400 kts | 115° |
| 2026-04-22 13:03 | 55.03273 | 14.18408 | 30950 ft | 400 kts | 115° |
| 2026-04-22 13:04 | 55.01913 | 14.22626 | 31317 ft | 400 kts | 115° |
| 2026-04-22 13:04 | 55.00550 | 14.26847 | 31702 ft | 399 kts | 114° |
| 2026-04-22 13:04 | 54.99187 | 14.31046 | 32185 ft | 396 kts | 114° |
| 2026-04-22 13:04 | 54.97836 | 14.35194 | 32728 ft | 392 kts | 114° |
| 2026-04-22 13:05 | 54.96465 | 14.39284 | 33219 ft | 392 kts | 117° |
| 2026-04-22 13:05 | 54.94777 | 14.42957 | 33754 ft | 397 kts | 126° |
| 2026-04-22 13:05 | 54.92671 | 14.46108 | 34297 ft | 404 kts | 136° |
| 2026-04-22 13:05 | 54.90230 | 14.48638 | 34656 ft | 412 kts | 142° |
| 2026-04-22 13:06 | 54.87703 | 14.51040 | 34868 ft | 415 kts | 143° |
| 2026-04-22 13:06 | 54.85161 | 14.53434 | 35103 ft | 417 kts | 143° |
| 2026-04-22 13:06 | 54.82597 | 14.55816 | 35351 ft | 421 kts | 146° |
| 2026-04-22 13:06 | 54.79855 | 14.57752 | 35588 ft | 429 kts | 152° |
| 2026-04-22 13:07 | 54.77036 | 14.59480 | 35821 ft | 431 kts | 153° |
| 2026-04-22 13:07 | 54.74210 | 14.61212 | 36061 ft | 432 kts | 153° |
| 2026-04-22 13:07 | 54.71374 | 14.62954 | 36288 ft | 433 kts | 153° |
| 2026-04-22 13:07 | 54.68532 | 14.64701 | 36521 ft | 434 kts | 153° |
| 2026-04-22 13:08 | 54.65680 | 14.66452 | 36740 ft | 435 kts | 153° |
| 2026-04-22 13:08 | 54.62827 | 14.68203 | 36975 ft | 436 kts | 154° |
| 2026-04-22 13:08 | 54.59959 | 14.69960 | 37180 ft | 438 kts | 154° |
| 2026-04-22 13:09 | 54.54190 | 14.73490 | 37246 ft | 441 kts | 154° |
| 2026-04-22 13:09 | 54.48406 | 14.77015 | 37243 ft | 441 kts | 154° |
| 2026-04-22 13:10 | 54.42658 | 14.80504 | 37248 ft | 441 kts | 154° |
| 2026-04-22 13:10 | 54.36871 | 14.84008 | 37250 ft | 441 kts | 154° |
| 2026-04-22 13:11 | 54.31074 | 14.87495 | 37252 ft | 442 kts | 155° |
| 2026-04-22 13:11 | 54.25268 | 14.90964 | 37249 ft | 442 kts | 155° |
| 2026-04-22 13:12 | 54.19428 | 14.94317 | 37256 ft | 443 kts | 156° |
| 2026-04-22 13:12 | 54.13573 | 14.97619 | 37265 ft | 443 kts | 156° |
| 2026-04-22 13:13 | 54.07721 | 15.00924 | 37261 ft | 443 kts | 155° |
| 2026-04-22 13:13 | 54.01851 | 15.04184 | 37261 ft | 444 kts | 156° |
| 2026-04-22 13:14 | 53.95956 | 15.07363 | 37261 ft | 445 kts | 156° |
| 2026-04-22 13:14 | 53.90055 | 15.10541 | 37255 ft | 445 kts | 156° |
| 2026-04-22 13:15 | 53.84157 | 15.13733 | 37257 ft | 445 kts | 156° |
| 2026-04-22 13:15 | 53.78258 | 15.16918 | 37275 ft | 445 kts | 157° |
| 2026-04-22 13:16 | 53.72353 | 15.20086 | 37262 ft | 445 kts | 157° |
| 2026-04-22 13:16 | 53.66444 | 15.23245 | 37257 ft | 446 kts | 157° |
| 2026-04-22 13:17 | 53.60526 | 15.26396 | 37256 ft | 446 kts | 157° |
| 2026-04-22 13:17 | 53.54609 | 15.29548 | 37252 ft | 446 kts | 157° |
| 2026-04-22 13:18 | 53.48690 | 15.32694 | 37270 ft | 446 kts | 157° |
| 2026-04-22 13:18 | 53.43077 | 15.36728 | 37262 ft | 441 kts | 150° |
| 2026-04-22 13:19 | 53.37500 | 15.41027 | 37257 ft | 441 kts | 150° |
| 2026-04-22 13:19 | 53.31923 | 15.45311 | 37255 ft | 441 kts | 150° |
| 2026-04-22 13:20 | 53.26338 | 15.49580 | 37245 ft | 441 kts | 150° |
| 2026-04-22 13:20 | 53.20751 | 15.53823 | 37272 ft | 441 kts | 150° |
| 2026-04-22 13:21 | 53.15161 | 15.58062 | 37258 ft | 441 kts | 150° |
| 2026-04-22 13:21 | 53.09574 | 15.62303 | 37253 ft | 441 kts | 150° |
| 2026-04-22 13:22 | 53.03987 | 15.66532 | 37240 ft | 441 kts | 150° |
| 2026-04-22 13:22 | 52.98394 | 15.70741 | 37242 ft | 441 kts | 150° |
| 2026-04-22 13:23 | 52.92798 | 15.74931 | 37239 ft | 441 kts | 150° |
| 2026-04-22 13:23 | 52.87245 | 15.79091 | 37229 ft | 441 kts | 150° |
| 2026-04-22 13:24 | 52.81653 | 15.83268 | 37248 ft | 441 kts | 150° |
| 2026-04-22 13:24 | 52.76014 | 15.87322 | 37237 ft | 442 kts | 152° |
| 2026-04-22 13:25 | 52.70329 | 15.91241 | 37224 ft | 443 kts | 152° |
| 2026-04-22 13:25 | 52.64642 | 15.95170 | 37242 ft | 443 kts | 152° |
| 2026-04-22 13:26 | 52.58959 | 15.99122 | 37227 ft | 443 kts | 152° |
| 2026-04-22 13:26 | 52.53275 | 16.03082 | 37217 ft | 444 kts | 152° |
| 2026-04-22 13:27 | 52.47586 | 16.07026 | 37224 ft | 444 kts | 152° |
| 2026-04-22 13:27 | 52.41891 | 16.10950 | 37233 ft | 444 kts | 152° |
| 2026-04-22 13:28 | 52.36192 | 16.14867 | 37231 ft | 444 kts | 152° |
| 2026-04-22 13:28 | 52.30528 | 16.18757 | 37223 ft | 444 kts | 152° |
| 2026-04-22 13:29 | 52.24830 | 16.22670 | 37217 ft | 444 kts | 152° |
| 2026-04-22 13:29 | 52.19130 | 16.26561 | 37219 ft | 444 kts | 152° |
| 2026-04-22 13:30 | 52.13422 | 16.30442 | 37221 ft | 444 kts | 152° |
| 2026-04-22 13:30 | 52.07713 | 16.34313 | 37221 ft | 445 kts | 152° |
| 2026-04-22 13:31 | 52.02002 | 16.38178 | 37235 ft | 445 kts | 152° |
| 2026-04-22 13:31 | 51.96278 | 16.42039 | 37228 ft | 445 kts | 152° |
| 2026-04-22 13:32 | 51.90553 | 16.45902 | 37217 ft | 446 kts | 152° |
| 2026-04-22 13:32 | 51.84822 | 16.49754 | 37224 ft | 446 kts | 152° |
| 2026-04-22 13:33 | 51.80051 | 16.52946 | 37228 ft | 447 kts | 152° |
| 2026-04-22 13:33 | 51.74302 | 16.56780 | 37224 ft | 447 kts | 153° |
| 2026-04-22 13:34 | 51.68552 | 16.60604 | 37217 ft | 447 kts | 153° |
| 2026-04-22 13:34 | 51.62801 | 16.64431 | 37232 ft | 447 kts | 152° |
| 2026-04-22 13:35 | 51.57044 | 16.68248 | 37244 ft | 448 kts | 153° |
| 2026-04-22 13:35 | 51.51274 | 16.72051 | 37229 ft | 448 kts | 153° |
| 2026-04-22 13:36 | 51.45501 | 16.75854 | 37221 ft | 449 kts | 153° |
| 2026-04-22 13:36 | 51.39726 | 16.79651 | 37219 ft | 449 kts | 153° |
| 2026-04-22 13:37 | 51.33946 | 16.83433 | 37222 ft | 449 kts | 153° |
| 2026-04-22 13:37 | 51.28160 | 16.87213 | 37227 ft | 449 kts | 153° |
| 2026-04-22 13:38 | 51.22366 | 16.90983 | 37233 ft | 450 kts | 153° |
| 2026-04-22 13:38 | 51.13663 | 16.96640 | 37226 ft | 451 kts | 153° |
| 2026-04-22 13:39 | 51.07852 | 17.00402 | 37223 ft | 451 kts | 153° |
| 2026-04-22 13:39 | 51.02044 | 17.04154 | 37231 ft | 451 kts | 153° |
| 2026-04-22 13:40 | 50.96232 | 17.07898 | 37225 ft | 451 kts | 153° |
| 2026-04-22 13:40 | 50.90418 | 17.11637 | 37225 ft | 451 kts | 153° |
| 2026-04-22 13:41 | 50.84592 | 17.15364 | 37242 ft | 451 kts | 153° |
| 2026-04-22 13:41 | 50.78771 | 17.19089 | 37237 ft | 451 kts | 153° |
| 2026-04-22 13:42 | 50.72947 | 17.22805 | 37238 ft | 452 kts | 154° |
| 2026-04-22 13:42 | 50.67152 | 17.26479 | 37236 ft | 452 kts | 154° |
| 2026-04-22 13:43 | 50.61311 | 17.30176 | 37231 ft | 452 kts | 154° |
| 2026-04-22 13:43 | 50.55469 | 17.33866 | 37235 ft | 452 kts | 154° |
| 2026-04-22 13:44 | 50.49627 | 17.37551 | 37243 ft | 452 kts | 154° |
| 2026-04-22 13:44 | 50.43787 | 17.41223 | 37248 ft | 452 kts | 154° |
| 2026-04-22 13:45 | 50.37939 | 17.44880 | 37233 ft | 452 kts | 154° |
| 2026-04-22 13:45 | 50.32092 | 17.48526 | 37226 ft | 452 kts | 154° |
| 2026-04-22 13:46 | 50.26192 | 17.51966 | 37216 ft | 455 kts | 162° |
| 2026-04-22 13:46 | 50.20003 | 17.54190 | 37209 ft | 457 kts | 164° |
| 2026-04-22 13:47 | 50.13804 | 17.56377 | 37206 ft | 457 kts | 164° |
| 2026-04-22 13:47 | 50.07604 | 17.58577 | 37203 ft | 457 kts | 163° |
| 2026-04-22 13:48 | 50.01401 | 17.60779 | 37220 ft | 457 kts | 163° |
| 2026-04-22 13:48 | 49.95197 | 17.62974 | 37204 ft | 457 kts | 164° |
| 2026-04-22 13:49 | 49.88984 | 17.65162 | 37204 ft | 458 kts | 164° |
| 2026-04-22 13:49 | 49.82775 | 17.67350 | 37197 ft | 458 kts | 164° |
| 2026-04-22 13:50 | 49.76560 | 17.69525 | 37200 ft | 458 kts | 164° |
| 2026-04-22 13:50 | 49.70338 | 17.71685 | 37196 ft | 459 kts | 164° |
| 2026-04-22 13:51 | 49.64112 | 17.73853 | 37207 ft | 459 kts | 164° |
| 2026-04-22 13:51 | 49.57889 | 17.76021 | 37206 ft | 459 kts | 164° |
| 2026-04-22 13:52 | 49.51658 | 17.78172 | 37197 ft | 459 kts | 164° |
| 2026-04-22 13:52 | 49.45475 | 17.80307 | 37197 ft | 459 kts | 164° |
| 2026-04-22 13:53 | 49.39201 | 17.82468 | 37192 ft | 459 kts | 164° |
| 2026-04-22 13:53 | 49.33012 | 17.84600 | 37188 ft | 459 kts | 164° |
| 2026-04-22 13:54 | 49.26776 | 17.86745 | 37191 ft | 459 kts | 164° |
| 2026-04-22 13:54 | 49.20537 | 17.88886 | 37194 ft | 460 kts | 165° |
| 2026-04-22 13:55 | 49.14297 | 17.91000 | 37199 ft | 460 kts | 165° |
| 2026-04-22 13:55 | 49.08048 | 17.93110 | 37208 ft | 460 kts | 165° |
| 2026-04-22 13:56 | 49.01896 | 17.95638 | 37202 ft | 456 kts | 154° |
| 2026-04-22 13:56 | 48.96268 | 17.99966 | 37189 ft | 453 kts | 149° |
| 2026-04-22 13:57 | 48.90668 | 18.04404 | 37176 ft | 454 kts | 149° |
| 2026-04-22 13:57 | 48.85067 | 18.08828 | 37170 ft | 454 kts | 149° |
| 2026-04-22 13:58 | 48.79467 | 18.13253 | 37165 ft | 454 kts | 149° |
| 2026-04-22 13:58 | 48.73861 | 18.17676 | 37184 ft | 454 kts | 150° |
| 2026-04-22 13:59 | 48.68257 | 18.22094 | 37161 ft | 454 kts | 150° |
| 2026-04-22 13:59 | 48.62640 | 18.26500 | 37155 ft | 455 kts | 150° |
| 2026-04-22 14:00 | 48.57011 | 18.30891 | 37156 ft | 455 kts | 150° |
| 2026-04-22 14:00 | 48.51383 | 18.35284 | 37149 ft | 455 kts | 150° |
| 2026-04-22 14:01 | 48.45753 | 18.39677 | 37146 ft | 456 kts | 150° |
| 2026-04-22 14:01 | 48.40120 | 18.44061 | 37147 ft | 456 kts | 150° |
| 2026-04-22 14:02 | 48.34472 | 18.48434 | 37145 ft | 457 kts | 150° |
| 2026-04-22 14:02 | 48.28819 | 18.52798 | 37140 ft | 457 kts | 150° |
| 2026-04-22 14:03 | 48.23159 | 18.57147 | 37137 ft | 457 kts | 150° |
| 2026-04-22 14:03 | 48.17503 | 18.61492 | 37132 ft | 457 kts | 151° |
| 2026-04-22 14:04 | 48.11839 | 18.65830 | 37145 ft | 457 kts | 151° |
| 2026-04-22 14:04 | 48.06206 | 18.70137 | 37140 ft | 458 kts | 151° |
| 2026-04-22 14:05 | 48.00535 | 18.74471 | 37138 ft | 458 kts | 151° |
| 2026-04-22 14:06 | 47.92016 | 18.80949 | 37127 ft | 458 kts | 151° |
| 2026-04-22 14:06 | 47.86329 | 18.85270 | 37128 ft | 459 kts | 151° |
| 2026-04-22 14:07 | 47.80640 | 18.89575 | 37133 ft | 459 kts | 152° |
| 2026-04-22 14:07 | 47.74944 | 18.93864 | 37119 ft | 459 kts | 152° |
| 2026-04-22 14:08 | 47.69239 | 18.98158 | 37116 ft | 460 kts | 152° |
| 2026-04-22 14:08 | 47.63528 | 19.02456 | 37115 ft | 460 kts | 152° |
| 2026-04-22 14:09 | 47.57811 | 19.06739 | 37122 ft | 461 kts | 152° |
| 2026-04-22 14:09 | 47.52085 | 19.11003 | 37130 ft | 461 kts | 152° |
| 2026-04-22 14:10 | 47.46351 | 19.15268 | 37145 ft | 461 kts | 152° |
| 2026-04-22 14:10 | 47.40612 | 19.19531 | 37136 ft | 462 kts | 152° |
| 2026-04-22 14:11 | 47.34910 | 19.23772 | 37136 ft | 462 kts | 152° |
| 2026-04-22 14:11 | 47.29129 | 19.28058 | 37136 ft | 462 kts | 152° |
| 2026-04-22 14:12 | 47.23414 | 19.32272 | 37143 ft | 462 kts | 152° |
| 2026-04-22 14:12 | 47.17660 | 19.36510 | 37140 ft | 463 kts | 152° |
| 2026-04-22 14:13 | 47.11903 | 19.40739 | 37137 ft | 463 kts | 153° |
| 2026-04-22 14:13 | 47.06142 | 19.44950 | 37133 ft | 463 kts | 153° |
| 2026-04-22 14:14 | 47.00383 | 19.49160 | 37130 ft | 463 kts | 153° |
| 2026-04-22 14:14 | 46.94621 | 19.53365 | 37124 ft | 462 kts | 153° |
| 2026-04-22 14:15 | 46.88863 | 19.57558 | 37134 ft | 462 kts | 153° |
| 2026-04-22 14:15 | 46.83096 | 19.61733 | 37137 ft | 463 kts | 153° |
| 2026-04-22 14:16 | 46.77326 | 19.65905 | 37133 ft | 463 kts | 153° |
| 2026-04-22 14:16 | 46.71553 | 19.70075 | 37125 ft | 463 kts | 153° |
| 2026-04-22 14:17 | 46.65782 | 19.74236 | 37123 ft | 463 kts | 153° |
| 2026-04-22 14:17 | 46.60001 | 19.78383 | 37140 ft | 463 kts | 153° |
| 2026-04-22 14:18 | 46.54215 | 19.82527 | 37138 ft | 464 kts | 153° |
| 2026-04-22 14:18 | 46.48428 | 19.86664 | 37139 ft | 463 kts | 153° |
| 2026-04-22 14:19 | 46.42646 | 19.90797 | 37128 ft | 463 kts | 154° |
| 2026-04-22 14:19 | 46.36861 | 19.94928 | 37129 ft | 464 kts | 154° |
| 2026-04-22 14:20 | 46.28171 | 20.01095 | 37127 ft | 464 kts | 154° |
| 2026-04-22 14:20 | 46.23354 | 20.04506 | 37129 ft | 464 kts | 154° |
| 2026-04-22 14:21 | 46.14625 | 20.10580 | 37125 ft | 465 kts | 156° |
| 2026-04-22 14:22 | 46.05669 | 20.15939 | 37125 ft | 465 kts | 159° |
| 2026-04-22 14:23 | 45.96664 | 20.21140 | 37125 ft | 465 kts | 158° |
| 2026-04-22 14:23 | 45.90687 | 20.24694 | 37124 ft | 465 kts | 158° |
| 2026-04-22 14:24 | 45.84712 | 20.28253 | 37123 ft | 465 kts | 158° |
| 2026-04-22 14:24 | 45.78730 | 20.31796 | 37128 ft | 465 kts | 158° |
| 2026-04-22 14:25 | 45.72776 | 20.35306 | 37121 ft | 466 kts | 158° |
| 2026-04-22 14:25 | 45.66774 | 20.38832 | 37134 ft | 466 kts | 159° |
| 2026-04-22 14:26 | 45.60771 | 20.42355 | 37133 ft | 466 kts | 159° |
| 2026-04-22 14:26 | 45.54769 | 20.45854 | 37132 ft | 466 kts | 159° |
| 2026-04-22 14:27 | 45.48769 | 20.49351 | 37115 ft | 466 kts | 159° |
| 2026-04-22 14:27 | 45.42773 | 20.52856 | 37121 ft | 466 kts | 159° |
| 2026-04-22 14:28 | 45.36768 | 20.56356 | 37131 ft | 466 kts | 159° |
| 2026-04-22 14:28 | 45.30761 | 20.59837 | 37132 ft | 466 kts | 159° |
| 2026-04-22 14:29 | 45.24752 | 20.63309 | 37117 ft | 466 kts | 159° |
| 2026-04-22 14:29 | 45.18743 | 20.66768 | 37124 ft | 466 kts | 159° |
| 2026-04-22 14:30 | 45.12732 | 20.70226 | 37117 ft | 466 kts | 159° |
| 2026-04-22 14:30 | 45.06723 | 20.73678 | 37119 ft | 466 kts | 159° |
| 2026-04-22 14:31 | 45.00716 | 20.77130 | 37110 ft | 466 kts | 160° |
| 2026-04-22 14:31 | 44.94704 | 20.80569 | 37103 ft | 466 kts | 160° |
| 2026-04-22 14:32 | 44.88689 | 20.84002 | 37105 ft | 466 kts | 160° |
| 2026-04-22 14:32 | 44.82669 | 20.87428 | 37096 ft | 467 kts | 160° |
| 2026-04-22 14:33 | 44.76649 | 20.90848 | 37101 ft | 467 kts | 160° |
| 2026-04-22 14:33 | 44.70625 | 20.94264 | 37098 ft | 466 kts | 160° |
| 2026-04-22 14:34 | 44.64609 | 20.97663 | 37105 ft | 466 kts | 160° |
| 2026-04-22 14:34 | 44.58594 | 21.01049 | 37078 ft | 466 kts | 161° |
| 2026-04-22 14:35 | 44.52614 | 21.04417 | 37086 ft | 466 kts | 161° |
| 2026-04-22 14:35 | 44.46587 | 21.07798 | 37079 ft | 467 kts | 161° |
| 2026-04-22 14:36 | 44.40558 | 21.11178 | 37093 ft | 467 kts | 161° |
| 2026-04-22 14:36 | 44.34526 | 21.14551 | 37068 ft | 467 kts | 161° |
| 2026-04-22 14:37 | 44.28495 | 21.17922 | 37078 ft | 467 kts | 161° |
| 2026-04-22 14:37 | 44.22457 | 21.21289 | 37075 ft | 467 kts | 161° |
| 2026-04-22 14:38 | 44.16420 | 21.24645 | 37073 ft | 467 kts | 161° |
| 2026-04-22 14:38 | 44.10380 | 21.27992 | 37062 ft | 467 kts | 161° |
| 2026-04-22 14:39 | 44.04335 | 21.31333 | 37069 ft | 467 kts | 161° |
| 2026-04-22 14:39 | 43.98289 | 21.34665 | 37064 ft | 467 kts | 162° |
| 2026-04-22 14:40 | 43.89220 | 21.39660 | 37046 ft | 468 kts | 162° |
| 2026-04-22 14:40 | 43.83170 | 21.42981 | 37064 ft | 468 kts | 162° |
| 2026-04-22 14:41 | 43.77120 | 21.46294 | 37061 ft | 467 kts | 162° |
| 2026-04-22 14:41 | 43.71069 | 21.49598 | 37062 ft | 467 kts | 162° |
| 2026-04-22 14:42 | 43.65014 | 21.52896 | 37042 ft | 468 kts | 162° |
| 2026-04-22 14:42 | 43.58954 | 21.56195 | 37049 ft | 468 kts | 162° |
| 2026-04-22 14:43 | 43.52893 | 21.59491 | 37046 ft | 468 kts | 162° |
| 2026-04-22 14:43 | 43.46833 | 21.62770 | 37027 ft | 468 kts | 163° |
| 2026-04-22 14:44 | 43.40773 | 21.66040 | 37036 ft | 468 kts | 163° |
| 2026-04-22 14:44 | 43.34758 | 21.69281 | 37037 ft | 468 kts | 163° |
| 2026-04-22 14:45 | 43.28696 | 21.72534 | 37042 ft | 468 kts | 163° |
| 2026-04-22 14:45 | 43.22632 | 21.75789 | 37023 ft | 468 kts | 163° |
| 2026-04-22 14:46 | 43.16566 | 21.79049 | 37035 ft | 468 kts | 163° |
| 2026-04-22 14:46 | 43.10500 | 21.82302 | 37043 ft | 468 kts | 163° |
| 2026-04-22 14:47 | 43.04429 | 21.85552 | 37019 ft | 468 kts | 163° |
| 2026-04-22 14:47 | 42.98354 | 21.88783 | 37030 ft | 469 kts | 164° |
| 2026-04-22 14:48 | 42.92268 | 21.92012 | 37042 ft | 469 kts | 164° |
| 2026-04-22 14:48 | 42.86185 | 21.95230 | 37045 ft | 469 kts | 164° |
| 2026-04-22 14:49 | 42.80096 | 21.98448 | 37027 ft | 469 kts | 164° |
| 2026-04-22 14:49 | 42.74007 | 22.01669 | 37036 ft | 470 kts | 164° |
| 2026-04-22 14:50 | 42.67909 | 22.04875 | 37039 ft | 470 kts | 164° |
| 2026-04-22 14:50 | 42.61813 | 22.08088 | 37042 ft | 470 kts | 164° |
| 2026-04-22 14:51 | 42.55708 | 22.11287 | 37043 ft | 470 kts | 164° |
| 2026-04-22 14:51 | 42.49604 | 22.14485 | 37045 ft | 470 kts | 165° |
| 2026-04-22 14:52 | 42.43507 | 22.17677 | 37047 ft | 470 kts | 165° |
| 2026-04-22 14:52 | 42.37404 | 22.20863 | 37018 ft | 470 kts | 165° |
| 2026-04-22 14:53 | 42.31281 | 22.23958 | 37019 ft | 467 kts | 170° |
| 2026-04-22 14:53 | 42.24992 | 22.25651 | 37022 ft | 460 kts | 177° |
| 2026-04-22 14:54 | 42.18684 | 22.27135 | 36989 ft | 460 kts | 177° |
| 2026-04-22 14:54 | 42.12371 | 22.28627 | 37002 ft | 461 kts | 177° |
| 2026-04-22 14:55 | 42.06049 | 22.30115 | 37006 ft | 462 kts | 177° |
| 2026-04-22 14:55 | 41.99715 | 22.31600 | 36998 ft | 462 kts | 178° |
| 2026-04-22 14:56 | 41.93379 | 22.33088 | 37004 ft | 462 kts | 178° |
| 2026-04-22 14:56 | 41.87036 | 22.34560 | 37016 ft | 462 kts | 178° |
| 2026-04-22 14:57 | 41.80744 | 22.36034 | 37017 ft | 463 kts | 178° |
| 2026-04-22 14:57 | 41.74400 | 22.37524 | 36992 ft | 463 kts | 178° |
| 2026-04-22 14:58 | 41.68044 | 22.38993 | 36999 ft | 464 kts | 178° |
| 2026-04-22 14:58 | 41.61680 | 22.40463 | 37004 ft | 464 kts | 178° |
| 2026-04-22 14:59 | 41.55318 | 22.41937 | 37014 ft | 464 kts | 178° |
| 2026-04-22 14:59 | 41.48963 | 22.43406 | 37023 ft | 463 kts | 178° |
| 2026-04-22 15:00 | 41.42609 | 22.44862 | 37024 ft | 463 kts | 178° |
| 2026-04-22 15:00 | 41.36257 | 22.46319 | 36998 ft | 463 kts | 179° |
| 2026-04-22 15:01 | 41.29915 | 22.47777 | 37011 ft | 462 kts | 179° |
| 2026-04-22 15:01 | 41.23578 | 22.49224 | 37019 ft | 462 kts | 179° |
| 2026-04-22 15:02 | 41.19391 | 22.50181 | 37020 ft | 462 kts | 179° |
| 2026-04-22 15:02 | 41.13070 | 22.51957 | 36997 ft | 473 kts | 169° |
| 2026-04-22 15:03 | 41.10015 | 22.53690 | 37003 ft | 484 kts | 159° |
| 2026-04-22 15:03 | 41.07046 | 22.55821 | 37007 ft | 485 kts | 159° |
| 2026-04-22 15:03 | 41.01107 | 22.60077 | 37009 ft | 485 kts | 159° |
| 2026-04-22 15:04 | 40.95157 | 22.64299 | 37015 ft | 485 kts | 159° |
| 2026-04-22 15:04 | 40.89190 | 22.68520 | 36993 ft | 487 kts | 159° |
| 2026-04-22 15:05 | 40.83150 | 22.72553 | 37003 ft | 485 kts | 163° |
| 2026-04-22 15:05 | 40.76995 | 22.76155 | 37008 ft | 484 kts | 165° |
| 2026-04-22 15:06 | 40.70814 | 22.79687 | 37018 ft | 485 kts | 164° |
| 2026-04-22 15:06 | 40.64650 | 22.83336 | 36998 ft | 486 kts | 163° |
| 2026-04-22 15:07 | 40.58497 | 22.87052 | 37007 ft | 487 kts | 163° |
| 2026-04-22 15:07 | 40.52340 | 22.90752 | 37014 ft | 487 kts | 163° |
| 2026-04-22 15:08 | 40.47211 | 22.93798 | 37014 ft | 487 kts | 163° |
| 2026-04-22 15:08 | 40.41036 | 22.97445 | 37017 ft | 487 kts | 163° |
| 2026-04-22 15:09 | 40.34857 | 23.01096 | 37032 ft | 487 kts | 163° |
| 2026-04-22 15:09 | 40.28679 | 23.04761 | 37032 ft | 487 kts | 163° |
| 2026-04-22 15:10 | 40.22504 | 23.08408 | 37001 ft | 487 kts | 163° |
| 2026-04-22 15:10 | 40.16331 | 23.12036 | 37021 ft | 486 kts | 163° |
| 2026-04-22 15:11 | 40.10175 | 23.15651 | 37042 ft | 484 kts | 163° |
| 2026-04-22 15:11 | 40.04037 | 23.19260 | 37045 ft | 483 kts | 163° |
| 2026-04-22 15:12 | 39.97904 | 23.22849 | 37022 ft | 483 kts | 163° |
| 2026-04-22 15:12 | 39.91784 | 23.26430 | 37024 ft | 482 kts | 163° |
| 2026-04-22 15:13 | 39.85674 | 23.29995 | 37025 ft | 481 kts | 163° |
| 2026-04-22 15:13 | 39.79596 | 23.33523 | 37026 ft | 481 kts | 163° |
| 2026-04-22 15:14 | 39.73483 | 23.37062 | 36989 ft | 481 kts | 163° |
| 2026-04-22 15:14 | 39.67374 | 23.40605 | 37003 ft | 481 kts | 163° |
| 2026-04-22 15:15 | 39.61266 | 23.44147 | 37019 ft | 481 kts | 163° |
| 2026-04-22 15:15 | 39.55164 | 23.47675 | 37046 ft | 480 kts | 163° |
| 2026-04-22 15:16 | 39.49068 | 23.51193 | 37001 ft | 479 kts | 163° |
| 2026-04-22 15:16 | 39.42985 | 23.54694 | 37014 ft | 478 kts | 163° |
| 2026-04-22 15:17 | 39.36906 | 23.58183 | 37012 ft | 478 kts | 163° |
| 2026-04-22 15:17 | 39.30824 | 23.61661 | 37011 ft | 477 kts | 163° |
| 2026-04-22 15:18 | 39.24752 | 23.65130 | 36994 ft | 477 kts | 163° |
| 2026-04-22 15:18 | 39.18685 | 23.68597 | 37001 ft | 477 kts | 163° |
| 2026-04-22 15:19 | 39.12615 | 23.72049 | 37006 ft | 477 kts | 163° |
| 2026-04-22 15:19 | 39.06540 | 23.75492 | 36997 ft | 477 kts | 163° |
| 2026-04-22 15:20 | 39.00481 | 23.78935 | 37010 ft | 475 kts | 162° |
| 2026-04-22 15:20 | 38.94481 | 23.82346 | 37021 ft | 474 kts | 162° |
| 2026-04-22 15:21 | 38.88447 | 23.85757 | 37027 ft | 473 kts | 162° |
| 2026-04-22 15:21 | 38.82378 | 23.89170 | 37022 ft | 473 kts | 162° |
| 2026-04-22 15:22 | 38.76396 | 23.92532 | 37004 ft | 472 kts | 162° |
| 2026-04-22 15:22 | 38.70345 | 23.95950 | 37013 ft | 472 kts | 162° |
| 2026-04-22 15:23 | 38.64338 | 23.99332 | 37017 ft | 471 kts | 162° |
| 2026-04-22 15:23 | 38.58330 | 24.02698 | 37011 ft | 471 kts | 162° |
| 2026-04-22 15:24 | 38.52367 | 24.06026 | 37002 ft | 470 kts | 162° |
| 2026-04-22 15:24 | 38.46371 | 24.09359 | 37010 ft | 470 kts | 162° |
| 2026-04-22 15:25 | 38.40386 | 24.12698 | 37007 ft | 469 kts | 162° |
| 2026-04-22 15:25 | 38.34408 | 24.16041 | 37006 ft | 469 kts | 162° |
| 2026-04-22 15:26 | 38.28429 | 24.19354 | 36982 ft | 469 kts | 162° |
| 2026-04-22 15:26 | 38.22451 | 24.22659 | 36986 ft | 468 kts | 162° |
| 2026-04-22 15:27 | 38.16476 | 24.25966 | 36989 ft | 468 kts | 162° |
| 2026-04-22 15:27 | 38.10467 | 24.29287 | 36981 ft | 468 kts | 162° |
| 2026-04-22 15:28 | 38.04533 | 24.32555 | 36986 ft | 468 kts | 163° |
| 2026-04-22 15:28 | 37.98560 | 24.35840 | 36980 ft | 468 kts | 163° |
| 2026-04-22 15:29 | 37.92588 | 24.39121 | 36974 ft | 468 kts | 163° |
| 2026-04-22 15:30 | 37.83642 | 24.44024 | 36949 ft | 467 kts | 162° |
| 2026-04-22 15:30 | 37.77678 | 24.47289 | 36958 ft | 467 kts | 163° |
| 2026-04-22 15:31 | 37.71717 | 24.50541 | 36958 ft | 467 kts | 163° |
| 2026-04-22 15:31 | 37.65754 | 24.53786 | 36964 ft | 467 kts | 163° |
| 2026-04-22 15:32 | 37.59791 | 24.57024 | 36961 ft | 467 kts | 163° |
| 2026-04-22 15:32 | 37.53832 | 24.60262 | 36948 ft | 466 kts | 162° |
| 2026-04-22 15:33 | 37.47880 | 24.63493 | 36961 ft | 466 kts | 162° |
| 2026-04-22 15:33 | 37.41922 | 24.66712 | 36965 ft | 466 kts | 162° |
| 2026-04-22 15:34 | 37.35972 | 24.69926 | 36973 ft | 465 kts | 162° |
| 2026-04-22 15:34 | 37.30029 | 24.73136 | 36961 ft | 464 kts | 162° |
| 2026-04-22 15:35 | 37.25100 | 24.75796 | 36963 ft | 463 kts | 163° |
| 2026-04-22 15:35 | 37.18179 | 24.79505 | 36959 ft | 462 kts | 163° |
| 2026-04-22 15:36 | 37.12265 | 24.82677 | 36949 ft | 462 kts | 163° |
| 2026-04-22 15:36 | 37.06347 | 24.85852 | 36936 ft | 462 kts | 163° |
| 2026-04-22 15:36 | 37.03389 | 24.87437 | 36717 ft | 464 kts | 163° |
| 2026-04-22 15:37 | 37.00419 | 24.89023 | 36167 ft | 465 kts | 163° |
| 2026-04-22 15:37 | 36.97447 | 24.90606 | 35631 ft | 464 kts | 163° |
| 2026-04-22 15:37 | 36.94476 | 24.92186 | 35108 ft | 464 kts | 162° |
| 2026-04-22 15:37 | 36.91510 | 24.93765 | 34596 ft | 463 kts | 162° |
| 2026-04-22 15:38 | 36.88554 | 24.95338 | 34088 ft | 461 kts | 162° |
| 2026-04-22 15:38 | 36.82665 | 24.98477 | 32915 ft | 458 kts | 162° |
| 2026-04-22 15:38 | 36.79740 | 25.00035 | 32364 ft | 456 kts | 162° |
| 2026-04-22 15:39 | 36.76827 | 25.01581 | 31824 ft | 454 kts | 162° |
| 2026-04-22 15:39 | 36.73927 | 25.03116 | 31292 ft | 451 kts | 162° |
| 2026-04-22 15:39 | 36.71049 | 25.04641 | 30767 ft | 449 kts | 162° |
| 2026-04-22 15:39 | 36.68185 | 25.06159 | 30251 ft | 446 kts | 162° |
| 2026-04-22 15:40 | 36.65336 | 25.07670 | 29688 ft | 444 kts | 162° |
| 2026-04-22 15:40 | 36.62505 | 25.09167 | 29104 ft | 441 kts | 162° |
| 2026-04-22 15:40 | 36.59688 | 25.10654 | 28525 ft | 438 kts | 162° |
| 2026-04-22 15:40 | 36.56891 | 25.12131 | 27936 ft | 435 kts | 162° |
| 2026-04-22 15:41 | 36.54109 | 25.13597 | 27355 ft | 433 kts | 162° |
| 2026-04-22 15:41 | 36.51332 | 25.15058 | 26687 ft | 433 kts | 162° |
| 2026-04-22 15:41 | 36.48553 | 25.16518 | 26031 ft | 433 kts | 162° |
| 2026-04-22 15:41 | 36.45778 | 25.17973 | 25390 ft | 433 kts | 161° |
| 2026-04-22 15:42 | 36.43042 | 25.19407 | 24773 ft | 432 kts | 161° |
| 2026-04-22 15:42 | 36.40274 | 25.20858 | 24163 ft | 432 kts | 161° |
| 2026-04-22 15:42 | 36.37471 | 25.22328 | 23553 ft | 431 kts | 161° |
| 2026-04-22 15:42 | 36.34749 | 25.23756 | 22857 ft | 430 kts | 161° |
| 2026-04-22 15:43 | 36.32000 | 25.25199 | 22135 ft | 429 kts | 161° |
| 2026-04-22 15:43 | 36.29259 | 25.26637 | 21469 ft | 427 kts | 161° |
| 2026-04-22 15:43 | 36.26527 | 25.28071 | 20809 ft | 425 kts | 161° |
| 2026-04-22 15:43 | 36.23806 | 25.29498 | 20162 ft | 424 kts | 161° |
| 2026-04-22 15:44 | 36.21097 | 25.30917 | 19527 ft | 422 kts | 161° |
| 2026-04-22 15:44 | 36.18361 | 25.32193 | 18905 ft | 417 kts | 169° |
| 2026-04-22 15:44 | 36.15535 | 25.32607 | 18390 ft | 403 kts | 186° |
| 2026-04-22 15:44 | 36.12824 | 25.32102 | 17933 ft | 388 kts | 199° |
| 2026-04-22 15:45 | 36.10243 | 25.31264 | 17454 ft | 380 kts | 200° |
| 2026-04-22 15:45 | 36.07715 | 25.30433 | 16968 ft | 372 kts | 199° |
| 2026-04-22 15:45 | 36.05238 | 25.29610 | 16507 ft | 365 kts | 199° |
| 2026-04-22 15:45 | 36.02803 | 25.28796 | 16051 ft | 359 kts | 199° |
| 2026-04-22 15:46 | 36.00409 | 25.27998 | 15601 ft | 354 kts | 199° |
| 2026-04-22 15:46 | 35.98040 | 25.27211 | 15160 ft | 351 kts | 199° |
| 2026-04-22 15:46 | 35.95690 | 25.26432 | 14724 ft | 348 kts | 199° |
| 2026-04-22 15:46 | 35.93359 | 25.25659 | 14294 ft | 346 kts | 199° |
| 2026-04-22 15:47 | 35.91042 | 25.24893 | 13875 ft | 344 kts | 199° |
| 2026-04-22 15:47 | 35.88740 | 25.24134 | 13410 ft | 341 kts | 199° |
| 2026-04-22 15:47 | 35.86450 | 25.23380 | 12935 ft | 340 kts | 199° |
| 2026-04-22 15:47 | 35.84173 | 25.22630 | 12472 ft | 338 kts | 199° |
| 2026-04-22 15:48 | 35.81912 | 25.21884 | 12021 ft | 335 kts | 199° |
| 2026-04-22 15:48 | 35.79666 | 25.21143 | 11563 ft | 333 kts | 199° |
| 2026-04-22 15:48 | 35.77435 | 25.20411 | 11119 ft | 331 kts | 199° |
| 2026-04-22 15:48 | 35.75216 | 25.19684 | 10682 ft | 329 kts | 199° |
| 2026-04-22 15:49 | 35.73008 | 25.18960 | 10252 ft | 327 kts | 199° |
| 2026-04-22 15:49 | 35.70817 | 25.18240 | 9826 ft | 325 kts | 199° |
| 2026-04-22 15:49 | 35.68638 | 25.17523 | 9358 ft | 323 kts | 199° |
| 2026-04-22 15:49 | 35.66474 | 25.16810 | 8895 ft | 321 kts | 199° |
| 2026-04-22 15:50 | 35.64327 | 25.16105 | 8437 ft | 318 kts | 199° |
| 2026-04-22 15:50 | 35.62199 | 25.15407 | 7989 ft | 315 kts | 198° |
| 2026-04-22 15:50 | 35.60103 | 25.14721 | 7506 ft | 308 kts | 198° |
| 2026-04-22 15:50 | 35.58061 | 25.14055 | 7020 ft | 299 kts | 198° |
| 2026-04-22 15:51 | 35.56078 | 25.13410 | 6544 ft | 291 kts | 198° |
| 2026-04-22 15:51 | 35.54142 | 25.12781 | 6052 ft | 285 kts | 198° |
| 2026-04-22 15:51 | 35.52246 | 25.12163 | 5549 ft | 279 kts | 198° |
| 2026-04-22 15:51 | 35.50384 | 25.11555 | 5054 ft | 274 kts | 198° |
| 2026-04-22 15:52 | 35.48554 | 25.10957 | 4558 ft | 270 kts | 199° |
| 2026-04-22 15:52 | 35.46750 | 25.10368 | 4054 ft | 267 kts | 199° |
| 2026-04-22 15:52 | 35.44991 | 25.09793 | 3560 ft | 264 kts | 198° |
| 2026-04-22 15:52 | 35.43227 | 25.09217 | 3065 ft | 260 kts | 197° |
| 2026-04-22 15:53 | 35.41491 | 25.08650 | 2575 ft | 256 kts | 196° |
| 2026-04-22 15:53 | 35.39801 | 25.08100 | 2150 ft | 243 kts | 195° |
| 2026-04-22 15:53 | 35.38255 | 25.07599 | 2011 ft | 216 kts | 196° |
| 2026-04-22 15:53 | 35.36855 | 25.07211 | 1804 ft | 201 kts | 189° |
| 2026-04-22 15:54 | 35.35498 | 25.07373 | 1447 ft | 195 kts | 160° |
| 2026-04-22 15:54 | 35.34506 | 25.08325 | 1299 ft | 176 kts | 119° |
| 2026-04-22 15:54 | 35.34335 | 25.09746 | 1232 ft | 169 kts | 87° |
| 2026-04-22 15:54 | 35.34342 | 25.11097 | 998 ft | 148 kts | 88° |
| 2026-04-22 15:55 | 35.34354 | 25.12280 | 828 ft | 133 kts | 91° |
| 2026-04-22 15:55 | 35.34295 | 25.13385 | 645 ft | 127 kts | 93° |
| 2026-04-22 15:55 | 35.34242 | 25.14458 | 471 ft | 126 kts | 92° |
| 2026-04-22 15:55 | 35.34178 | 25.15159 | 363 ft | 124 kts | 93° |
| 2026-04-22 15:56 | 35.34101 | 25.16217 | 178 ft | 125 kts | 93° |
| 2026-04-22 15:56 | 35.34029 | 25.17244 | 92 ft | 110 kts | 94° |
| 2026-04-22 15:56 | 35.33979 | 25.18014 | 93 ft | 67 kts | 95° |
| 2026-04-22 15:56 | 35.33955 | 25.18347 | 94 ft | 8 kts | 94° |
| 2026-04-22 15:57 | 35.33909 | 25.18416 | 90 ft | 14 kts | 175° |
| 2026-04-22 15:57 | 35.33854 | 25.18333 | 92 ft | 16 kts | 277° |
| 2026-04-22 15:57 | 35.33865 | 25.18196 | 93 ft | 17 kts | 276° |
| 2026-04-22 15:57 | 35.33877 | 25.18041 | 92 ft | 20 kts | 275° |
| 2026-04-22 15:58 | 35.33886 | 25.17869 | 92 ft | 19 kts | 275° |
| 2026-04-22 15:58 | 35.33898 | 25.17713 | 94 ft | 18 kts | 275° |
| 2026-04-22 15:58 | 35.33852 | 25.17620 | 91 ft | 15 kts | 187° |
| 2026-04-22 15:58 | 35.33795 | 25.17590 | 92 ft | 7 kts | 279° |
| 2026-04-22 15:59 | 35.33808 | 25.17543 | 91 ft | 2 kts | 321° |
| 2026-04-22 15:59 | 35.33814 | 25.17537 | 91 ft | 0 kts | 320° |